createdAt,value
2023-10-20T00:03:01.310Z,10.49
2023-10-20T00:08:04.101Z,10.50
2023-10-20T00:13:06.663Z,10.52
2023-10-20T00:18:08.437Z,10.70
2023-10-20T00:23:10.414Z,10.65
2023-10-20T00:28:12.134Z,10.57
2023-10-20T00:33:13.970Z,10.39
2023-10-20T00:38:15.748Z,10.19
2023-10-20T00:43:17.666Z,10.50
2023-10-20T00:48:19.495Z,10.47
2023-10-20T00:53:23.689Z,10.48
2023-10-20T00:58:29.022Z,10.56
2023-10-20T01:03:33.990Z,10.35
2023-10-20T01:08:35.864Z,10.39
2023-10-20T01:13:37.631Z,10.50
2023-10-20T01:18:39.774Z,10.55
2023-10-20T01:23:41.641Z,10.62
2023-10-20T01:28:43.938Z,10.64
2023-10-20T01:33:46.309Z,10.46
2023-10-20T01:38:48.088Z,10.50
2023-10-20T01:43:49.798Z,10.56
2023-10-20T01:48:51.525Z,10.64
2023-10-20T01:53:53.220Z,10.69
2023-10-20T01:58:55.204Z,10.33
2023-10-20T02:03:57.114Z,10.54
2023-10-20T02:08:59.607Z,10.46
2023-10-20T02:14:01.465Z,10.39
2023-10-20T02:19:05.884Z,10.21
2023-10-20T02:24:09.106Z,10.34
2023-10-20T02:29:10.830Z,10.06
2023-10-20T02:34:12.784Z,10.27
2023-10-20T02:39:15.120Z,10.24
2023-10-20T02:44:19.071Z,10.25
2023-10-20T02:49:21.312Z,10.33
2023-10-20T02:54:23.054Z,10.35
2023-10-20T02:59:24.822Z,10.28
2023-10-20T03:04:26.705Z,10.29
2023-10-20T03:09:28.536Z,10.15
2023-10-20T03:14:32.006Z,10.26
2023-10-20T03:19:33.966Z,10.28
2023-10-20T03:24:35.767Z,10.26
2023-10-20T03:29:37.556Z,10.21
2023-10-20T03:34:39.310Z,10.12
2023-10-20T03:39:41.202Z,10.11
2023-10-20T03:44:44.809Z,10.15
2023-10-20T03:49:47.887Z,10.09
2023-10-20T03:54:49.597Z,10.02
2023-10-20T03:59:51.291Z,10.18
2023-10-20T04:04:53.082Z,10.30
2023-10-20T04:09:54.768Z,10.12
2023-10-20T04:14:56.570Z,10.13
2023-10-20T04:19:58.277Z,10.38
2023-10-20T04:25:00.143Z,10.04
2023-10-20T04:30:20.078Z,10.24
2023-10-20T04:35:40.109Z,10.11
2023-10-20T04:41:00.246Z,10.21
2023-10-20T04:46:20.258Z,10.21
2023-10-20T04:51:40.518Z,10.36
2023-10-20T04:57:02.169Z,10.44
2023-10-20T05:02:25.777Z,10.40
2023-10-20T05:07:27.756Z,10.53
2023-10-20T05:12:29.577Z,10.47
2023-10-20T05:17:33.398Z,10.61
2023-10-20T05:22:35.190Z,10.54
2023-10-20T05:27:36.902Z,10.63
2023-10-20T05:32:39.467Z,10.69
2023-10-20T05:37:41.317Z,10.63
2023-10-20T05:42:43.021Z,10.78
2023-10-20T05:47:45.428Z,10.78
2023-10-20T05:52:47.270Z,10.62
2023-10-20T05:57:49.037Z,10.80
2023-10-20T06:02:50.962Z,10.85
2023-10-20T06:07:52.704Z,10.79
2023-10-20T06:12:55.393Z,10.85
2023-10-20T06:17:58.742Z,10.78
2023-10-20T06:23:01.342Z,10.98
2023-10-20T06:28:03.108Z,11.07
2023-10-20T06:33:16.940Z,11.18
2023-10-20T06:38:37.019Z,11.10
2023-10-20T06:43:38.832Z,11.23
2023-10-20T06:48:40.577Z,11.12
2023-10-20T06:53:42.313Z,11.60
2023-10-20T06:58:45.081Z,11.79
2023-10-20T07:03:47.959Z,11.93
2023-10-20T07:08:52.129Z,11.83
2023-10-20T07:13:53.982Z,11.64
2023-10-20T07:18:55.910Z,11.79
2023-10-20T07:23:57.740Z,11.56
2023-10-20T07:28:59.448Z,11.83
2023-10-20T07:34:01.211Z,11.69
2023-10-20T07:39:03.011Z,11.82
2023-10-20T07:44:05.732Z,11.60
2023-10-20T07:49:07.602Z,11.51
2023-10-20T07:54:10.206Z,11.71
2023-10-20T07:59:12.369Z,11.67
2023-10-20T08:04:14.469Z,11.69
2023-10-20T08:09:16.402Z,11.83
2023-10-20T08:14:18.134Z,11.78
2023-10-20T08:19:19.880Z,11.47
2023-10-20T08:24:21.568Z,11.67
2023-10-20T08:29:23.388Z,11.60
2023-10-20T08:34:25.254Z,11.70
2023-10-20T08:39:28.961Z,11.42
2023-10-20T08:44:31.621Z,11.45
2023-10-20T08:49:33.719Z,11.59
2023-10-20T08:54:36.150Z,11.61
2023-10-20T08:59:38.106Z,11.45
2023-10-20T09:04:41.851Z,11.67
2023-10-20T09:09:44.249Z,11.52
2023-10-20T09:14:46.013Z,11.42
2023-10-20T09:19:47.841Z,11.61
2023-10-20T09:24:52.188Z,11.31
2023-10-20T09:29:57.417Z,11.44
2023-10-20T09:34:59.288Z,11.61
2023-10-20T09:40:09.669Z,11.56
2023-10-20T09:45:16.493Z,11.45
2023-10-20T09:50:20.824Z,11.52
2023-10-20T09:55:22.976Z,11.32
2023-10-20T10:00:35.835Z,11.21
2023-10-20T10:05:37.938Z,11.23
2023-10-20T10:10:39.707Z,11.19
2023-10-20T10:15:43.225Z,11.18
2023-10-20T10:20:50.086Z,11.22
2023-10-20T10:25:52.039Z,10.96
2023-10-20T10:30:54.004Z,11.12
2023-10-20T10:36:11.265Z,11.22
2023-10-20T10:41:13.347Z,11.31
2023-10-20T10:46:15.131Z,11.33
2023-10-20T10:51:21.320Z,11.34
2023-10-20T10:56:23.327Z,11.34
2023-10-20T11:01:25.210Z,11.37
2023-10-20T11:06:27.058Z,11.62
2023-10-20T11:11:28.897Z,11.70
2023-10-20T11:16:30.737Z,11.53
2023-10-20T11:21:45.666Z,11.58
2023-10-20T11:26:59.403Z,11.42
2023-10-20T11:32:06.791Z,11.43
2023-10-20T11:37:09.968Z,11.39
2023-10-20T11:42:13.070Z,11.49
2023-10-20T11:47:14.817Z,11.21
2023-10-20T11:52:16.591Z,11.28
2023-10-20T11:57:19.135Z,11.35
2023-10-20T12:02:23.662Z,11.53
2023-10-20T12:07:25.958Z,11.53
2023-10-20T12:12:27.891Z,11.69
2023-10-20T12:17:29.960Z,11.67
2023-10-20T12:22:31.787Z,11.57
2023-10-20T12:27:33.554Z,11.62
2023-10-20T12:32:35.365Z,11.48
2023-10-20T12:37:37.110Z,11.52
2023-10-20T12:42:38.856Z,11.44
2023-10-20T12:47:40.667Z,11.37
2023-10-20T12:52:42.433Z,11.23
2023-10-20T12:57:44.152Z,11.24
2023-10-20T13:02:47.081Z,11.25
2023-10-20T13:07:51.396Z,11.04
2023-10-20T13:12:53.881Z,10.99
2023-10-20T13:17:57.153Z,10.90
2023-10-20T13:22:58.962Z,10.78
2023-10-20T13:28:01.019Z,10.66
2023-10-20T13:33:05.758Z,10.63
2023-10-20T13:38:18.213Z,10.51
2023-10-20T13:43:21.580Z,10.62
2023-10-20T13:48:23.418Z,10.64
2023-10-20T13:53:25.958Z,10.61
2023-10-20T13:58:28.056Z,10.70
2023-10-20T14:03:30.672Z,10.70
2023-10-20T14:08:32.694Z,10.71
2023-10-20T14:13:34.805Z,10.78
2023-10-20T14:18:36.574Z,10.84
2023-10-20T14:23:38.523Z,10.90
2023-10-20T14:28:40.287Z,10.96
2023-10-20T14:33:42.070Z,11.05
2023-10-20T14:38:44.385Z,11.26
2023-10-20T14:43:46.165Z,11.15
2023-10-20T14:48:48.046Z,11.25
2023-10-20T14:58:52.018Z,11.23
2023-10-20T15:03:54.055Z,11.21
2023-10-20T15:08:55.863Z,11.33
2023-10-20T15:13:57.614Z,11.19
2023-10-20T15:18:59.374Z,11.31
2023-10-20T15:24:02.254Z,11.29
2023-10-20T15:29:05.081Z,11.45
2023-10-20T15:34:06.842Z,11.49
2023-10-20T15:39:11.434Z,11.45
2023-10-20T15:44:13.197Z,11.45
2023-10-20T15:49:14.886Z,11.60
2023-10-20T15:54:20.026Z,11.60
2023-10-20T15:59:23.641Z,11.46
2023-10-20T16:04:25.678Z,11.62
2023-10-20T16:09:27.618Z,11.39
2023-10-20T16:14:29.333Z,11.57
2023-10-20T16:19:31.078Z,11.50
2023-10-20T16:24:32.989Z,11.47
2023-10-20T16:29:35.127Z,11.05
2023-10-20T16:34:37.048Z,11.31
2023-10-20T16:39:38.875Z,11.18
2023-10-20T16:44:40.726Z,11.34
2023-10-20T16:49:42.477Z,11.29
2023-10-20T16:54:48.427Z,11.01
2023-10-20T16:59:50.197Z,11.22
2023-10-20T17:04:52.120Z,11.08
2023-10-20T17:09:54.273Z,11.13
2023-10-20T17:14:56.013Z,11.01
2023-10-20T17:19:57.766Z,11.15
2023-10-20T17:24:59.529Z,11.00
2023-10-20T17:30:01.313Z,11.13
2023-10-20T17:35:03.301Z,11.14
2023-10-20T17:40:05.592Z,10.93
2023-10-20T17:45:07.804Z,11.10
2023-10-20T17:50:10.152Z,11.10
2023-10-20T17:55:12.737Z,11.12
2023-10-20T18:00:15.175Z,11.18
2023-10-20T18:05:18.388Z,10.96
2023-10-20T18:10:20.094Z,10.96
2023-10-20T18:15:21.780Z,11.21
2023-10-20T18:20:24.960Z,11.19
2023-10-20T18:25:28.832Z,11.15
2023-10-20T18:30:30.605Z,11.12
2023-10-20T18:35:35.603Z,11.07
2023-10-20T18:40:37.407Z,11.20
2023-10-20T18:45:39.929Z,11.03
2023-10-20T18:50:41.631Z,11.00
2023-10-20T18:55:43.606Z,11.11
2023-10-20T19:00:45.343Z,10.91
2023-10-20T19:05:49.682Z,11.01
2023-10-20T19:10:51.396Z,11.13
2023-10-20T19:15:56.298Z,11.03
2023-10-20T19:21:02.461Z,10.98
2023-10-20T19:26:11.227Z,10.94
2023-10-20T19:31:15.273Z,10.92
2023-10-20T19:36:18.182Z,10.92
2023-10-20T19:41:19.896Z,11.03
2023-10-20T19:46:22.012Z,10.91
2023-10-20T19:51:24.190Z,10.84
2023-10-20T19:56:25.939Z,11.02
2023-10-20T20:01:28.667Z,11.02
2023-10-20T20:06:30.944Z,10.99
2023-10-20T20:11:32.678Z,10.94
2023-10-20T20:16:34.476Z,10.74
2023-10-20T20:21:36.186Z,11.01
2023-10-20T20:26:37.888Z,10.93
2023-10-20T20:31:39.613Z,11.04
2023-10-20T20:36:41.317Z,10.98
2023-10-20T20:41:43.110Z,10.99
2023-10-20T20:46:44.911Z,11.01
2023-10-20T20:51:46.880Z,11.03
2023-10-20T20:56:48.647Z,11.03
2023-10-20T21:01:50.375Z,10.73
2023-10-20T21:06:52.143Z,10.75
2023-10-20T21:11:53.867Z,10.82
2023-10-20T21:16:55.659Z,10.76
2023-10-20T21:21:57.451Z,10.69
2023-10-20T21:26:59.191Z,10.59
2023-10-20T21:32:00.936Z,10.61
2023-10-20T21:37:02.683Z,10.63
2023-10-20T21:42:06.196Z,10.72
2023-10-20T21:47:08.240Z,10.68
2023-10-20T21:52:09.929Z,10.38
2023-10-20T21:57:12.187Z,10.37
2023-10-20T22:02:14.979Z,10.34
2023-10-20T22:07:16.687Z,10.56
2023-10-20T22:12:18.380Z,10.55
2023-10-20T22:17:20.110Z,10.53
2023-10-20T22:22:21.814Z,10.65
2023-10-20T22:27:28.086Z,10.84
2023-10-20T22:32:29.810Z,10.74
2023-10-20T22:37:31.627Z,10.73
2023-10-20T22:42:33.449Z,10.75
2023-10-20T22:47:35.763Z,10.83
2023-10-20T22:52:37.604Z,10.76
2023-10-20T22:57:39.470Z,10.83
2023-10-20T23:02:41.492Z,10.86
2023-10-20T23:07:44.304Z,10.98
2023-10-20T23:12:46.034Z,11.10
2023-10-20T23:17:47.824Z,10.84
2023-10-20T23:22:49.579Z,10.73
2023-10-20T23:27:51.286Z,10.79
2023-10-20T23:32:53.048Z,10.90
2023-10-20T23:37:54.816Z,10.97
2023-10-20T23:42:56.511Z,10.94
2023-10-20T23:47:58.280Z,10.85
2023-10-20T23:53:00.051Z,10.75
2023-10-20T23:58:01.797Z,10.55
